Latest Weather Observations for West Roebuck

IDW60801

Issued at 5:33 pm WST Monday 17 December 2018 (issued every 10 minutes, with the page automatically refreshed every 10 minutes)

About weather observations | Map of weather stations | Latest weather observations for WA | Other Formats
Station Details ID: 003096 Name: WEST ROEBUCK Lat: -17.90 Lon: 122.31 Height: 32.0 m
Data from the previous 72 hours. | See also: Recent months at West Roebuck
Date/Time
WST
Temp
°C
App
Temp
°C
Dew
Point
°C
Rel
Hum
%
Delta-T
°C
Wind Press
QNH
hPa
Press
MSL
hPa
Rain since
9am
mm
Dir  Spd
km/h
Gust
km/h
Spd
kts
Gust
kts
17/05:30pm 27.6 - - - - WNW 19 30 10 16 - - 0.0
17/05:00pm 28.6 - - - - W 20 33 11 18 - - 0.0
17/04:30pm 29.1 - - - - W 19 30 10 16 - - 0.0
17/04:00pm 29.1 - - - - W 20 32 11 17 - - 0.0
17/03:30pm 30.6 - - - - W 19 32 10 17 - - 0.0
17/03:00pm 30.5 - - - - W 24 37 13 20 - - 0.0
17/02:30pm 31.0 - - - - WNW 22 33 12 18 - - 0.0
17/02:00pm 31.4 - - - - WNW 19 32 10 17 - - 0.0
17/01:30pm 31.1 - - - - W 22 35 12 19 - - 0.0
17/01:00pm 32.7 - - - - WNW 20 32 11 17 - - 0.0
17/12:30pm 30.8 - - - - W 20 32 11 17 - - 0.0
17/12:00pm 31.6 - - - - W 17 26 9 14 - - 0.0
17/11:30am 30.4 - - - - W 22 33 12 18 - - 0.0
17/11:00am 31.2 - - - - W 20 32 11 17 - - 0.0
17/10:30am 31.3 - - - - WSW 17 28 9 15 - - 0.0
17/10:00am 31.3 - - - - WSW 19 28 10 15 - - 0.0
17/09:30am 29.6 - - - - WSW 20 30 11 16 - - 0.0
17/09:00am 29.7 - - - - WSW 19 35 10 19 - - 0.0
17/08:30am 28.8 - - - - W 20 32 11 17 - - 0.0
17/08:00am 28.8 - - - - WSW 20 32 11 17 - - 0.0
17/07:30am 28.2 - - - - W 19 28 10 15 - - 0.0
17/07:00am 27.4 - - - - WSW 19 30 10 16 - - 0.0
17/06:30am 27.0 - - - - W 17 26 9 14 - - 0.0
17/06:00am 26.2 - - - - WSW 15 26 8 14 - - 0.0
17/05:30am 25.6 - - - - W 15 22 8 12 - - 0.0
17/05:00am 25.5 - - - - W 17 24 9 13 - - 0.0
17/04:30am 25.4 - - - - WSW 17 26 9 14 - - 0.0
17/04:00am 25.4 - - - - W 19 32 10 17 - - 0.0
17/03:30am 25.4 - - - - W 17 28 9 15 - - 0.0
17/03:00am 25.1 - - - - W 15 26 8 14 - - 0.0
17/02:30am 25.1 - - - - W 15 26 8 14 - - 0.0
17/02:00am 25.1 - - - - W 17 24 9 13 - - 0.0
17/01:30am 25.3 - - - - W 15 20 8 11 - - 0.0
17/01:00am 25.6 - - - - W 19 32 10 17 - - 0.0
17/12:30am 25.7 - - - - W 17 30 9 16 - - 0.0
17/12:00am 25.8 - - - - W 19 28 10 15 - - 0.0
 
Date/Time
WST
Temp
°C
App
Temp
°C
Dew
Point
°C
Rel
Hum
%
Delta-T
°C
Wind Press
QNH
hPa
Press
MSL
hPa
Rain since
9am
mm
Dir  Spd
km/h
Gust
km/h
Spd
kts
Gust
kts
16/11:30pm 26.0 - - - - W 17 30 9 16 - - 0.0
16/11:00pm 26.1 - - - - W 17 32 9 17 - - 0.0
16/10:30pm 26.0 - - - - W 17 28 9 15 - - 0.0
16/10:00pm 26.0 - - - - W 17 26 9 14 - - 0.0
16/09:30pm 25.9 - - - - W 13 22 7 12 - - 0.0
16/09:00pm 26.0 - - - - W 15 28 8 15 - - 0.0
16/08:30pm 25.9 - - - - W 15 24 8 13 - - 0.0
16/08:00pm 25.9 - - - - W 13 22 7 12 - - 0.0
16/07:30pm 26.0 - - - - W 15 24 8 13 - - 0.0
16/07:00pm 26.2 - - - - WSW 15 24 8 13 - - 0.0
16/06:30pm 26.6 - - - - SSW 15 24 8 13 - - 0.0
16/06:00pm 27.1 - - - - SSW 19 28 10 15 - - 0.0
16/05:30pm 27.7 - - - - SSW 22 35 12 19 - - 0.0
16/05:00pm 29.2 - - - - S 20 32 11 17 - - 0.0
16/04:30pm 29.2 - - - - SSW 22 37 12 20 - - 0.0
16/04:00pm 30.2 - - - - SW 22 35 12 19 - - 0.0
16/03:30pm 30.5 - - - - SSW 24 39 13 21 - - 0.0
16/03:00pm 30.6 - - - - SSW 20 33 11 18 - - 0.0
16/02:30pm 30.9 - - - - SSW 24 37 13 20 - - 0.0
16/02:00pm 31.0 - - - - SSW 24 39 13 21 - - 0.0
16/01:30pm 31.3 - - - - SSW 24 37 13 20 - - 0.0
16/01:00pm 32.0 - - - - SSW 24 41 13 22 - - 0.0
16/12:30pm 31.6 - - - - SSW 24 35 13 19 - - 0.0
16/12:00pm 30.8 - - - - S 24 35 13 19 - - 0.0
16/11:30am 31.8 - - - - SSE 20 35 11 19 - - 0.0
16/11:00am 31.0 - - - - SSW 24 35 13 19 - - 0.0
16/10:30am 31.1 - - - - W 22 33 12 18 - - 0.0
16/10:00am 30.8 - - - - WSW 22 33 12 18 - - 0.0
16/09:30am 31.5 - - - - W 20 32 11 17 - - 0.0
16/09:00am 30.6 - - - - WSW 20 32 11 17 - - 0.0
16/08:30am 30.0 - - - - W 20 32 11 17 - - 0.0
16/08:00am 29.0 - - - - W 20 30 11 16 - - 0.0
16/07:30am 29.4 - - - - W 19 33 10 18 - - 0.0
16/07:00am 29.0 - - - - W 22 33 12 18 - - 0.0
16/06:30am 27.8 - - - - W 19 28 10 15 - - 0.0
16/06:00am 27.2 - - - - W 19 30 10 16 - - 0.0
16/05:30am 26.7 - - - - W 17 24 9 13 - - 0.0
16/05:00am 26.5 - - - - W 17 26 9 14 - - 0.0
16/04:30am 26.4 - - - - W 15 22 8 12 - - 0.0
16/04:00am 26.4 - - - - W 17 26 9 14 - - 0.0
16/03:30am 26.3 - - - - W 13 20 7 11 - - 0.0
16/03:00am 26.3 - - - - WNW 15 28 8 15 - - 0.0
16/02:30am 26.3 - - - - WNW 15 24 8 13 - - 0.0
16/02:00am 26.3 - - - - WNW 15 24 8 13 - - 0.0
16/01:30am 26.4 - - - - WNW 15 26 8 14 - - 0.0
16/01:00am 26.5 - - - - WNW 13 24 7 13 - - 0.0
16/12:30am 26.4 - - - - WNW 13 20 7 11 - - 0.0
16/12:00am 26.6 - - - - WNW 15 22 8 12 - - 0.0
 
Date/Time
WST
Temp
°C
App
Temp
°C
Dew
Point
°C
Rel
Hum
%
Delta-T
°C
Wind Press
QNH
hPa
Press
MSL
hPa
Rain since
9am
mm
Dir  Spd
km/h
Gust
km/h
Spd
kts
Gust
kts
15/11:30pm 26.7 - - - - WNW 15 26 8 14 - - 0.0
15/11:00pm 26.8 - - - - WNW 13 20 7 11 - - 0.0
15/10:30pm 26.9 - - - - WNW 15 22 8 12 - - 0.0
15/10:00pm 26.8 - - - - WNW 11 17 6 9 - - 0.0
15/09:30pm 27.0 - - - - WNW 11 17 6 9 - - 0.0
15/09:00pm 27.2 - - - - WNW 15 20 8 11 - - 0.0
15/08:30pm 27.2 - - - - WNW 13 19 7 10 - - 0.0
15/08:00pm 27.4 - - - - WNW 15 22 8 12 - - 0.0
15/07:30pm 27.5 - - - - WNW 15 22 8 12 - - 0.0
15/07:00pm 27.7 - - - - WNW 15 24 8 13 - - 0.0
15/06:30pm 28.2 - - - - WNW 15 28 8 15 - - 0.0
15/06:00pm 28.8 - - - - WNW 19 26 10 14 - - 0.0
15/05:30pm 29.9 - - - - WNW 17 28 9 15 - - 0.0
15/05:00pm 31.0 - - - - WNW 17 28 9 15 - - 0.0
15/04:30pm 31.6 - - - - WNW 17 28 9 15 - - 0.0
15/04:00pm 32.1 - - - - WNW 20 32 11 17 - - 0.0
15/03:30pm 32.7 - - - - WNW 20 30 11 16 - - 0.0
15/03:00pm 33.0 - - - - W 19 28 10 15 - - 0.0
15/02:30pm 33.7 - - - - WNW 19 32 10 17 - - 0.0
15/02:00pm 33.7 - - - - WNW 20 30 11 16 - - 0.0
15/01:30pm 33.5 - - - - WNW 20 32 11 17 - - 0.0
15/01:00pm 34.4 - - - - W 20 32 11 17 - - 0.0
15/12:30pm 32.9 - - - - W 20 33 11 18 - - 0.0
15/12:00pm 33.3 - - - - W 19 28 10 15 - - 0.0
15/11:30am 33.2 - - - - WNW 17 30 9 16 - - 0.0
15/11:00am 33.2 - - - - W 17 30 9 16 - - 0.0
15/10:30am 33.7 - - - - W 19 26 10 14 - - 0.0
15/10:00am 32.9 - - - - W 17 26 9 14 - - 0.0
15/09:30am 32.6 - - - - W 17 28 9 15 - - 0.0
15/09:00am 31.6 - - - - WNW 15 24 8 13 - - 0.0
15/08:30am 31.4 - - - - WNW 15 24 8 13 - - 0.0
15/08:00am 31.1 - - - - WNW 15 28 8 15 - - 0.0
15/07:30am 30.1 - - - - WNW 13 17 7 9 - - 0.0
15/07:00am 29.2 - - - - WNW 13 20 7 11 - - 0.0
15/06:30am 27.9 - - - - NW 4 11 2 6 - - 0.0
15/06:00am 25.7 - - - - NNW 6 9 3 5 - - 0.0
15/05:30am 24.5 - - - - CALM 0 0 0 0 - - 0.0
15/05:00am 24.3 - - - - NW 6 9 3 5 - - 0.0
15/04:30am 24.7 - - - - NNW 7 9 4 5 - - 0.0
15/04:00am 25.2 - - - - CALM 0 0 0 0 - - 0.0
15/03:30am 26.2 - - - - NNW 4 7 2 4 - - 0.0
15/03:00am 26.9 - - - - WNW 9 17 5 9 - - 0.0
15/02:30am 27.2 - - - - WNW 9 13 5 7 - - 0.0
15/02:00am 27.4 - - - - WNW 13 20 7 11 - - 0.0
15/01:30am 27.7 - - - - WNW 15 24 8 13 - - 0.0
15/01:00am 27.5 - - - - WNW 13 20 7 11 - - 0.0
15/12:30am 27.7 - - - - WNW 11 19 6 10 - - 0.0
15/12:00am 27.7 - - - - WNW 11 19 6 10 - - 0.0
 
Date/Time
WST
Temp
°C
App
Temp
°C
Dew
Point
°C
Rel
Hum
%
Delta-T
°C
Wind Press
QNH
hPa
Press
MSL
hPa
Rain since
9am
mm
Dir  Spd
km/h
Gust
km/h
Spd
kts
Gust
kts
14/11:30pm 27.8 - - - - WNW 13 19 7 10 - - 0.0
14/11:00pm 27.9 - - - - WNW 9 13 5 7 - - 0.0
14/10:30pm 27.8 - - - - NW 11 19 6 10 - - 0.0
14/10:00pm 28.1 - - - - NW 15 22 8 12 - - 0.0
14/09:30pm 28.4 - - - - NW 17 24 9 13 - - 0.0
14/09:00pm 28.2 - - - - NW 13 20 7 11 - - 0.0
14/08:30pm 28.2 - - - - NW 15 24 8 13 - - 0.0
14/08:00pm 28.2 - - - - NW 15 24 8 13 - - 0.0
14/07:30pm 28.3 - - - - NW 17 24 9 13 - - 0.0
14/07:00pm 28.5 - - - - NW 19 28 10 15 - - 0.0
14/06:30pm 28.7 - - - - NW 20 30 11 16 - - 0.0
14/06:00pm 29.1 - - - - NW 20 32 11 17 - - 0.0

Other Formats:

Comma delimited format used in spreadsheet applications
http://www.bom.gov.au/fwo/IDW60801/IDW60801.95204.axf

JavaScript Object Notation format (JSON) in row-major order
http://www.bom.gov.au/fwo/IDW60801/IDW60801.95204.json